Time;durP1;ratioP1;P1;durP2;ratioP2;P2;SDS_P1;SDS_P2;PMS_P1;PMS_P2;Temp;Humidity;BMP_temperature;BMP_pressure;BME280_temperature;BME280_humidity;BME280_pressure;Samples;Min_cycle;Max_cycle;Signal;HPM_P1;HPM_P2
2023/12/07 00:01:49;;;;;;;28.70;19.20;;;7.50;99.90;;;;;;5090881;28;20226;-69
2023/12/07 00:04:15;;;;;;;27.57;18.03;;;7.50;99.90;;;;;;5111642;28;20183;-67
2023/12/07 00:06:40;;;;;;;25.90;17.37;;;7.40;99.90;;;;;;5104337;28;20514;-69
2023/12/07 00:09:06;;;;;;;27.70;18.07;;;7.50;99.90;;;;;;5084387;28;20640;-68
2023/12/07 00:11:32;;;;;;;26.93;18.77;;;7.50;99.90;;;;;;5084008;28;20221;-69
2023/12/07 00:13:58;;;;;;;29.43;19.30;;;7.00;99.90;;;;;;5093117;28;20265;-69
2023/12/07 00:16:23;;;;;;;27.10;18.00;;;7.70;99.90;;;;;;5092478;28;20212;-69
2023/12/07 00:18:49;;;;;;;27.87;18.10;;;7.50;99.90;;;;;;5078142;28;20644;-69
2023/12/07 00:21:15;;;;;;;24.40;17.53;;;7.50;99.90;;;;;;5092810;28;20180;-68
2023/12/07 00:23:41;;;;;;;27.30;17.93;;;7.40;99.90;;;;;;5093284;28;20267;-68
2023/12/07 00:26:06;;;;;;;28.23;17.20;;;7.40;99.90;;;;;;5099056;28;20191;-68
2023/12/07 00:28:32;;;;;;;27.23;17.70;;;7.40;99.90;;;;;;5096256;28;20571;-68
2023/12/07 00:30:58;;;;;;;25.87;16.77;;;7.20;99.90;;;;;;5081602;28;20656;-68
2023/12/07 00:33:24;;;;;;;27.17;17.60;;;7.30;99.90;;;;;;5087000;28;20172;-69
2023/12/07 00:35:50;;;;;;;23.90;17.87;;;7.20;99.90;;;;;;5075512;28;20669;-68
2023/12/07 00:38:16;;;;;;;23.47;16.73;;;6.90;99.90;;;;;;5092396;28;20420;-68
2023/12/07 00:40:41;;;;;;;27.93;17.03;;;7.30;99.90;;;;;;5082831;28;20426;-68
2023/12/07 00:43:07;;;;;;;27.73;18.47;;;7.20;99.90;;;;;;5077454;28;20200;-68
2023/12/07 00:45:33;;;;;;;24.27;16.90;;;7.20;99.90;;;;;;5083782;28;20188;-68
2023/12/07 00:47:59;;;;;;;30.10;17.90;;;7.30;99.90;;;;;;5098609;28;20196;-68
2023/12/07 00:50:24;;;;;;;25.83;17.23;;;7.20;99.90;;;;;;5093102;28;20465;-68
2023/12/07 00:52:50;;;;;;;25.70;16.83;;;7.20;99.90;;;;;;5087635;28;20558;-68
2023/12/07 00:55:16;;;;;;;29.27;18.17;;;7.40;99.90;;;;;;5091870;28;20215;-68
2023/12/07 00:57:42;;;;;;;30.80;16.93;;;7.20;99.90;;;;;;5082671;28;20625;-66
2023/12/07 01:00:10;;;;;;;26.87;17.03;;;7.30;99.90;;;;;;5092643;28;20524;-67
2023/12/07 01:02:36;;;;;;;27.93;18.13;;;7.20;99.90;;;;;;5084709;28;20652;-68
2023/12/07 01:05:01;;;;;;;26.47;17.37;;;7.20;99.90;;;;;;5075339;28;20424;-68
2023/12/07 01:07:27;;;;;;;30.17;17.97;;;7.20;99.90;;;;;;5081736;28;20172;-68
2023/12/07 01:09:53;;;;;;;28.77;17.90;;;7.20;99.90;;;;;;5073556;28;20424;-68
2023/12/07 01:12:19;;;;;;;30.87;18.03;;;7.10;99.90;;;;;;5091616;28;20172;-68
2023/12/07 01:14:45;;;;;;;28.60;17.23;;;7.10;99.90;;;;;;5100596;28;20733;-68
2023/12/07 01:17:11;;;;;;;26.70;18.20;;;7.10;99.90;;;;;;5083770;28;21934;-68
2023/12/07 01:19:37;;;;;;;26.67;18.17;;;7.10;99.90;;;;;;5075779;28;20802;-68
2023/12/07 01:22:03;;;;;;;30.23;19.30;;;7.10;99.90;;;;;;5118094;27;20441;-68
2023/12/07 01:24:29;;;;;;;28.87;18.53;;;7.10;99.90;;;;;;5091470;28;20522;-68
2023/12/07 01:26:55;;;;;;;23.60;17.20;;;7.10;99.90;;;;;;5092915;28;20786;-68
2023/12/07 01:29:21;;;;;;;26.27;17.03;;;7.00;99.90;;;;;;5082805;28;20429;-68
2023/12/07 01:31:46;;;;;;;26.40;16.97;;;7.00;99.90;;;;;;5090477;28;20429;-68
2023/12/07 01:34:12;;;;;;;24.37;17.30;;;7.00;99.90;;;;;;5075679;28;20175;-68
2023/12/07 01:36:38;;;;;;;24.87;15.87;;;7.00;99.90;;;;;;5083220;28;20285;-68
2023/12/07 01:39:04;;;;;;;26.03;16.40;;;6.90;99.90;;;;;;5088404;28;20443;-68
2023/12/07 01:41:30;;;;;;;28.70;17.17;;;6.80;99.90;;;;;;5076677;28;20591;-68
2023/12/07 01:43:56;;;;;;;26.17;16.97;;;6.90;99.90;;;;;;5104389;28;20433;-68
2023/12/07 01:46:22;;;;;;;27.33;17.80;;;6.90;99.90;;;;;;5072280;28;20420;-61
2023/12/07 01:48:49;;;;;;;24.17;17.00;;;6.80;99.90;;;;;;5099198;28;20184;-68
2023/12/07 01:51:16;;;;;;;25.87;15.87;;;6.90;99.90;;;;;;5082036;28;20429;-68
2023/12/07 01:53:42;;;;;;;29.90;19.27;;;6.80;99.90;;;;;;5084085;28;20813;-61
2023/12/07 01:56:10;;;;;;;29.30;16.73;;;6.80;99.90;;;;;;5089665;28;20472;-68
2023/12/07 01:58:36;;;;;;;28.13;16.67;;;6.80;99.90;;;;;;5090790;28;20435;-68
2023/12/07 02:01:03;;;;;;;24.47;15.70;;;6.80;99.90;;;;;;5088523;28;20773;-68
2023/12/07 02:03:31;;;;;;;29.00;16.60;;;6.70;99.90;;;;;;5092127;28;20470;-68
2023/12/07 02:05:57;;;;;;;25.20;17.50;;;6.90;99.90;;;;;;5091231;28;20800;-68
2023/12/07 02:08:23;;;;;;;27.87;17.70;;;6.80;99.90;;;;;;5086419;28;20766;-68
2023/12/07 02:10:49;;;;;;;28.37;18.10;;;6.90;99.90;;;;;;5089267;28;20422;-67
2023/12/07 02:13:15;;;;;;;26.97;17.00;;;7.00;99.90;;;;;;5089604;28;20303;-68
2023/12/07 02:15:41;;;;;;;29.23;18.13;;;6.90;99.90;;;;;;5089158;28;20567;-68
2023/12/07 02:18:14;;;;;;;30.70;18.40;;;6.80;99.90;;;;;;5076741;28;20426;-68
2023/12/07 02:20:45;;;;;;;28.77;18.40;;;6.90;99.90;;;;;;5090726;28;20637;-68
2023/12/07 02:23:14;;;;;;;28.90;18.20;;;6.90;99.90;;;;;;5081532;28;20430;-68
2023/12/07 02:25:53;;;;;;;29.70;17.30;;;6.80;99.90;;;;;;5075060;28;20525;-68
2023/12/07 02:28:18;;;;;;;28.40;18.00;;;6.80;99.90;;;;;;5078927;28;20416;-69
2023/12/07 02:30:44;;;;;;;28.27;17.40;;;6.80;99.90;;;;;;5091514;28;20451;-61
2023/12/07 02:33:11;;;;;;;24.90;16.90;;;6.70;99.90;;;;;;5119851;28;20179;-68
2023/12/07 02:35:38;;;;;;;26.70;16.07;;;6.70;99.90;;;;;;5071372;28;20529;-68
2023/12/07 02:38:06;;;;;;;21.60;14.70;;;6.70;99.90;;;;;;5073465;28;20488;-66
2023/12/07 02:40:32;;;;;;;22.00;15.80;;;6.50;99.90;;;;;;5082437;28;20452;-68
2023/12/07 02:42:59;;;;;;;28.67;17.33;;;6.50;99.90;;;;;;5104485;28;20508;-68
2023/12/07 02:45:28;;;;;;;22.37;15.23;;;6.60;99.90;;;;;;5096591;28;20448;-68
2023/12/07 02:47:53;;;;;;;24.70;15.77;;;6.50;99.90;;;;;;5084923;28;21144;-68
2023/12/07 02:50:20;;;;;;;29.40;18.07;;;6.50;99.90;;;;;;5086996;28;20432;-68
2023/12/07 02:52:46;;;;;;;26.47;15.93;;;6.40;99.90;;;;;;5100753;28;20185;-60
2023/12/07 02:55:12;;;;;;;25.30;16.07;;;6.40;99.90;;;;;;5094770;28;20472;-68
2023/12/07 02:57:38;;;;;;;26.30;15.70;;;6.30;99.90;;;;;;5081254;28;20431;-68
2023/12/07 03:00:07;;;;;;;24.13;16.17;;;5.90;99.90;;;;;;5086082;28;20203;-68
2023/12/07 03:02:35;;;;;;;24.13;16.03;;;6.20;99.90;;;;;;5090031;28;20671;-68
2023/12/07 03:05:01;;;;;;;27.47;17.47;;;6.20;99.90;;;;;;5089458;28;20768;-68
2023/12/07 03:07:27;;;;;;;29.20;16.60;;;6.10;99.90;;;;;;5090531;28;20920;-68
2023/12/07 03:09:52;;;;;;;24.17;17.80;;;6.20;99.90;;;;;;5080895;28;20478;-67
2023/12/07 03:12:18;;;;;;;29.93;18.00;;;6.10;99.90;;;;;;5089168;28;20178;-67
2023/12/07 03:14:44;;;;;;;25.53;16.30;;;6.00;99.90;;;;;;5073181;28;20215;-69
2023/12/07 03:17:10;;;;;;;26.40;16.67;;;6.00;99.90;;;;;;5104227;28;20289;-68
2023/12/07 03:19:40;;;;;;;27.00;16.83;;;5.90;99.90;;;;;;5075217;28;20399;-67
2023/12/07 03:22:09;;;;;;;38.83;18.57;;;6.00;99.90;;;;;;5075439;28;20421;-67
2023/12/07 03:24:36;;;;;;;33.20;17.10;;;5.90;99.90;;;;;;5073097;28;20446;-68
2023/12/07 03:27:02;;;;;;;24.60;15.90;;;5.80;99.90;;;;;;5072505;28;20431;-68
2023/12/07 03:29:27;;;;;;;24.67;17.23;;;5.90;99.90;;;;;;5081722;28;20417;-68
2023/12/07 03:31:53;;;;;;;28.67;16.83;;;5.90;99.90;;;;;;5090539;28;20415;-67
2023/12/07 03:34:19;;;;;;;25.87;17.20;;;6.00;99.90;;;;;;5089881;28;20231;-68
2023/12/07 03:36:48;;;;;;;28.00;16.70;;;5.80;99.90;;;;;;5090012;28;20272;-68
2023/12/07 03:39:15;;;;;;;27.13;16.83;;;5.80;99.90;;;;;;5090354;28;20655;-68
2023/12/07 03:41:41;;;;;;;24.25;16.30;;;5.90;99.90;;;;;;5099683;28;20871;-68
2023/12/07 03:44:07;;;;;;;27.60;16.40;;;5.80;99.90;;;;;;5100056;27;20204;-69
2023/12/07 03:46:33;;;;;;;27.37;16.17;;;5.70;99.90;;;;;;5093377;28;20190;-69
2023/12/07 03:48:59;;;;;;;22.97;14.97;;;5.70;99.90;;;;;;5086109;28;20431;-69
2023/12/07 03:51:27;;;;;;;23.13;15.47;;;5.70;99.90;;;;;;5083091;28;20187;-69
2023/12/07 03:53:54;;;;;;;26.07;15.50;;;5.70;99.90;;;;;;5079765;28;20428;-68
2023/12/07 03:56:40;;;;;;;24.37;15.63;;;5.80;99.90;;;;;;5091440;28;20434;-69
2023/12/07 03:59:06;;;;;;;27.38;16.58;;;5.70;99.90;;;;;;5085039;28;20409;-68
2023/12/07 04:01:32;;;;;;;27.27;16.40;;;5.60;99.90;;;;;;5086447;28;20179;-68
2023/12/07 04:04:00;;;;;;;24.17;15.73;;;5.60;99.90;;;;;;5090722;28;20481;-68
2023/12/07 04:06:26;;;;;;;26.03;16.60;;;5.60;99.90;;;;;;5085398;28;20182;-69
2023/12/07 04:08:52;;;;;;;25.87;17.57;;;5.60;99.90;;;;;;5085500;28;20875;-67
2023/12/07 04:11:18;;;;;;;20.50;14.80;;;5.60;99.90;;;;;;5093066;28;20437;-68
2023/12/07 04:13:44;;;;;;;26.37;16.53;;;5.40;99.90;;;;;;5107380;28;20474;-68
2023/12/07 04:16:11;;;;;;;23.03;15.30;;;5.70;99.90;;;;;;5103671;28;20834;-68
2023/12/07 04:18:37;;;;;;;25.37;15.87;;;5.60;99.90;;;;;;5094875;28;20750;-68
2023/12/07 04:21:04;;;;;;;25.63;16.20;;;5.60;99.90;;;;;;5111671;28;20779;-68
2023/12/07 04:23:30;;;;;;;24.10;15.30;;;5.60;99.90;;;;;;5101892;28;20423;-68
2023/12/07 04:25:56;;;;;;;23.43;15.00;;;5.70;99.90;;;;;;5086502;28;20432;-68
2023/12/07 04:28:22;;;;;;;22.37;14.47;;;5.90;99.90;;;;;;5074468;28;20637;-69
2023/12/07 04:30:47;;;;;;;21.67;15.17;;;5.70;99.90;;;;;;5074559;28;20206;-69
2023/12/07 04:33:13;;;;;;;20.07;13.47;;;5.70;99.90;;;;;;5085312;28;20233;-69
2023/12/07 04:35:39;;;;;;;24.97;16.20;;;6.10;99.90;;;;;;5111999;28;20542;-68
2023/12/07 04:38:05;;;;;;;23.50;14.77;;;6.00;99.90;;;;;;5095059;28;20178;-68
2023/12/07 04:40:30;;;;;;;22.17;14.50;;;5.90;99.90;;;;;;5109596;27;20182;-69
2023/12/07 04:42:56;;;;;;;19.53;13.70;;;5.70;99.90;;;;;;5124016;27;20187;-68
2023/12/07 04:45:22;;;;;;;22.97;16.57;;;6.30;99.90;;;;;;5114972;28;20184;-69
2023/12/07 04:47:48;;;;;;;21.40;13.30;;;6.00;99.90;;;;;;5112678;28;20423;-69
2023/12/07 04:50:14;;;;;;;21.07;14.77;;;6.00;99.90;;;;;;5107980;28;20567;-68
2023/12/07 04:52:39;;;;;;;23.53;15.20;;;5.60;99.90;;;;;;5093682;28;20231;-68
2023/12/07 04:55:06;;;;;;;20.67;14.67;;;6.00;99.90;;;;;;5092677;28;20555;-69
2023/12/07 04:57:34;;;;;;;20.30;13.77;;;6.10;99.90;;;;;;5093364;28;20191;-69
2023/12/07 05:00:00;;;;;;;24.77;15.60;;;6.10;99.90;;;;;;5092729;28;20425;-69
2023/12/07 05:02:27;;;;;;;20.67;13.57;;;6.20;99.90;;;;;;5079808;28;20395;-69
2023/12/07 05:04:53;;;;;;;17.90;13.33;;;6.00;99.90;;;;;;5090051;28;20425;-69
2023/12/07 05:07:20;;;;;;;23.67;15.30;;;6.00;99.90;;;;;;5093946;28;20409;-69
2023/12/07 05:09:46;;;;;;;19.90;14.57;;;6.10;99.90;;;;;;5092054;28;20468;-68
2023/12/07 05:12:11;;;;;;;25.07;14.97;;;6.10;99.90;;;;;;5092344;28;20421;-68
2023/12/07 05:14:37;;;;;;;23.70;16.00;;;6.10;99.90;;;;;;5092215;28;20226;-68
2023/12/07 05:17:03;;;;;;;22.30;13.90;;;5.90;99.90;;;;;;5090644;28;20240;-67
2023/12/07 05:19:29;;;;;;;23.97;15.90;;;5.80;99.90;;;;;;5093148;28;20903;-69
2023/12/07 05:21:55;;;;;;;27.30;19.27;;;5.90;99.90;;;;;;5091933;28;20426;-64
2023/12/07 05:24:22;;;;;;;23.97;16.20;;;6.00;99.90;;;;;;5091370;28;20443;-70
2023/12/07 05:26:48;;;;;;;22.67;16.07;;;6.00;99.90;;;;;;5092800;28;20403;-70
2023/12/07 05:29:14;;;;;;;22.40;17.10;;;6.00;99.90;;;;;;5092012;28;20768;-69
2023/12/07 05:31:40;;;;;;;23.47;15.10;;;6.00;99.90;;;;;;5092575;28;20791;-70
2023/12/07 05:34:07;;;;;;;24.67;17.10;;;6.00;99.90;;;;;;5091841;28;20400;-69
2023/12/07 05:36:33;;;;;;;19.47;14.30;;;5.80;99.90;;;;;;5092943;28;20444;-70
2023/12/07 05:38:59;;;;;;;22.00;15.37;;;6.10;99.90;;;;;;5092257;28;20424;-68
2023/12/07 05:41:25;;;;;;;25.80;14.93;;;6.10;99.90;;;;;;5091426;28;20534;-69
2023/12/07 05:43:52;;;;;;;19.50;13.47;;;6.10;99.90;;;;;;5075221;28;20396;-69
2023/12/07 05:46:21;;;;;;;20.90;13.27;;;6.20;99.90;;;;;;5109228;27;20433;-69
2023/12/07 05:48:47;;;;;;;19.67;12.73;;;6.20;99.90;;;;;;5109313;28;20447;-69
2023/12/07 05:51:17;;;;;;;19.50;14.27;;;6.10;99.90;;;;;;5088268;28;20498;-69
2023/12/07 05:53:43;;;;;;;22.37;14.50;;;6.30;99.90;;;;;;5094394;28;20634;-67
2023/12/07 05:56:10;;;;;;;23.20;15.27;;;6.10;99.90;;;;;;5097074;28;20463;-69
2023/12/07 05:58:35;;;;;;;22.20;15.00;;;6.10;99.90;;;;;;5099865;28;20763;-67
2023/12/07 06:01:02;;;;;;;23.27;13.87;;;6.30;99.90;;;;;;5095190;28;20417;-64
2023/12/07 06:03:28;;;;;;;21.27;14.23;;;6.20;99.90;;;;;;5092215;28;20257;-69
2023/12/07 06:05:55;;;;;;;18.90;13.70;;;6.40;99.90;;;;;;5091672;28;20760;-69
2023/12/07 06:08:21;;;;;;;22.47;13.73;;;6.20;99.90;;;;;;5091011;28;20884;-69
2023/12/07 06:10:47;;;;;;;19.33;13.87;;;6.20;99.90;;;;;;5096782;28;20503;-69
2023/12/07 06:13:14;;;;;;;20.38;15.55;;;6.20;99.90;;;;;;5101426;28;20440;-69
2023/12/07 06:15:40;;;;;;;21.23;13.40;;;6.20;99.90;;;;;;5086657;28;20225;-69
2023/12/07 06:18:06;;;;;;;20.13;13.20;;;6.20;99.90;;;;;;5089137;28;20432;-69
2023/12/07 06:20:33;;;;;;;21.37;14.37;;;6.20;99.90;;;;;;5094026;28;20454;-69
2023/12/07 06:22:59;;;;;;;23.30;14.80;;;6.20;99.90;;;;;;5112584;28;20387;-67
2023/12/07 06:25:25;;;;;;;18.57;13.73;;;6.30;99.90;;;;;;5094688;28;20419;-68
2023/12/07 06:27:51;;;;;;;19.40;14.20;;;6.10;99.90;;;;;;5102063;28;20331;-68
2023/12/07 06:30:17;;;;;;;22.57;15.00;;;5.90;99.90;;;;;;5110283;28;20377;-68
2023/12/07 06:32:44;;;;;;;21.67;15.17;;;6.00;99.90;;;;;;5103864;28;20419;-69
2023/12/07 06:35:16;;;;;;;18.73;12.63;;;6.00;99.90;;;;;;5106256;28;20531;-69
2023/12/07 06:37:41;;;;;;;18.70;15.27;;;5.90;99.90;;;;;;5092048;28;20955;-68
2023/12/07 06:40:09;;;;;;;17.07;11.53;;;5.80;99.90;;;;;;5090925;28;20183;-67
2023/12/07 06:42:36;;;;;;;20.57;14.23;;;5.70;99.90;;;;;;5100121;28;20182;-69
2023/12/07 06:45:02;;;;;;;17.07;14.17;;;5.50;99.90;;;;;;5112487;28;20439;-62
2023/12/07 06:47:28;;;;;;;19.33;12.70;;;5.80;99.90;;;;;;5094331;28;20401;-69
2023/12/07 06:49:55;;;;;;;18.97;12.27;;;5.80;99.90;;;;;;5089101;28;20769;-69
2023/12/07 06:52:21;;;;;;;21.30;13.80;;;5.70;99.90;;;;;;5089348;28;20389;-68
2023/12/07 06:54:47;;;;;;;19.17;14.73;;;5.70;99.90;;;;;;5103511;28;20818;-65
2023/12/07 06:57:13;;;;;;;23.10;13.90;;;5.70;99.90;;;;;;5091988;28;20416;-66
2023/12/07 06:59:40;;;;;;;19.37;13.17;;;5.70;99.90;;;;;;5091956;28;20172;-66
2023/12/07 07:02:06;;;;;;;19.83;12.83;;;5.70;99.90;;;;;;5098184;28;20401;-70
2023/12/07 07:04:32;;;;;;;18.58;13.13;;;5.60;99.90;;;;;;5091584;28;20435;-64
2023/12/07 07:06:58;;;;;;;20.60;12.57;;;5.80;99.90;;;;;;5087805;28;20182;-64
2023/12/07 07:09:24;;;;;;;21.87;12.97;;;5.20;99.90;;;;;;5090804;28;20685;-64
2023/12/07 07:11:51;;;;;;;21.47;15.10;;;5.60;99.90;;;;;;5073942;28;20193;-64
2023/12/07 07:14:17;;;;;;;18.70;13.73;;;5.60;99.90;;;;;;5072909;28;20461;-64
2023/12/07 07:16:43;;;;;;;21.77;14.80;;;5.70;99.90;;;;;;5074447;28;20464;-64
2023/12/07 07:19:09;;;;;;;21.40;14.40;;;5.60;99.90;;;;;;5075166;28;20413;-64
2023/12/07 07:21:34;;;;;;;18.73;13.20;;;5.70;99.90;;;;;;5093777;28;20430;-65
2023/12/07 07:24:00;;;;;;;17.23;13.10;;;5.70;99.90;;;;;;5094714;28;20453;-64
2023/12/07 07:26:26;;;;;;;21.87;13.80;;;5.70;99.90;;;;;;5095636;28;20177;-65
2023/12/07 07:28:55;;;;;;;19.10;12.87;;;5.70;99.90;;;;;;5094723;28;20170;-64
2023/12/07 07:31:21;;;;;;;21.10;14.10;;;5.70;99.90;;;;;;5095116;28;20166;-65
2023/12/07 07:33:47;;;;;;;20.93;13.40;;;5.70;99.90;;;;;;5094980;28;20439;-64
2023/12/07 07:36:14;;;;;;;18.80;13.50;;;5.70;99.90;;;;;;5094715;28;20296;-64
2023/12/07 07:38:41;;;;;;;19.70;12.65;;;5.70;99.90;;;;;;5093929;28;20431;-64
2023/12/07 07:41:06;;;;;;;22.97;14.80;;;5.70;99.90;;;;;;5106575;28;20639;-64
2023/12/07 07:43:34;;;;;;;19.43;14.00;;;5.80;99.90;;;;;;5110233;28;20409;-64
2023/12/07 07:46:00;;;;;;;25.67;17.37;;;5.80;99.90;;;;;;5093414;28;20289;-63
2023/12/07 07:48:26;;;;;;;20.87;14.33;;;5.80;99.90;;;;;;5091057;28;20477;-64
2023/12/07 07:50:52;;;;;;;23.40;15.13;;;5.40;99.90;;;;;;5112537;28;20854;-64
2023/12/07 07:53:18;;;;;;;22.53;14.10;;;5.80;99.90;;;;;;5095276;28;20420;-63
2023/12/07 07:55:43;;;;;;;23.58;16.08;;;5.80;99.90;;;;;;5098078;28;20533;-65
2023/12/07 07:58:09;;;;;;;21.53;15.03;;;5.80;99.90;;;;;;5101597;28;20671;-64
2023/12/07 08:00:35;;;;;;;22.43;15.40;;;5.50;99.90;;;;;;5101900;28;20188;-69
2023/12/07 08:03:01;;;;;;;21.77;13.83;;;5.80;99.90;;;;;;5083775;28;20482;-69
2023/12/07 08:05:26;;;;;;;25.03;16.30;;;5.30;99.90;;;;;;5094576;28;20181;-70
2023/12/07 08:07:52;;;;;;;24.33;16.70;;;5.70;99.90;;;;;;5112769;28;20187;-73
2023/12/07 08:10:18;;;;;;;22.07;15.07;;;5.30;99.90;;;;;;5107080;28;20440;-71
2023/12/07 08:12:44;;;;;;;20.17;13.23;;;5.60;99.90;;;;;;5108048;28;20215;-71
2023/12/07 08:15:10;;;;;;;24.57;14.93;;;5.40;99.90;;;;;;5113158;28;20288;-71
2023/12/07 08:17:40;;;;;;;23.17;14.37;;;5.70;99.90;;;;;;5092598;28;20190;-75
2023/12/07 08:20:10;;;;;;;25.27;15.67;;;5.70;99.90;;;;;;5083703;28;20789;-72
2023/12/07 08:22:40;;;;;;;20.85;14.13;;;5.70;99.90;;;;;;5096528;28;20420;-75
2023/12/07 08:25:09;;;;;;;22.73;15.53;;;5.60;99.90;;;;;;5100599;28;20181;-73
2023/12/07 08:27:36;;;;;;;24.33;17.70;;;5.50;99.90;;;;;;5094057;28;20423;-78
2023/12/07 08:30:03;;;;;;;23.47;15.27;;;5.50;99.90;;;;;;5094800;28;20739;-83
2023/12/07 08:32:29;;;;;;;19.97;14.77;;;5.50;99.90;;;;;;5110096;28;20442;-76
2023/12/07 08:34:54;;;;;;;28.67;18.03;;;5.60;99.90;;;;;;5096797;28;20493;-78
2023/12/07 08:37:20;;;;;;;26.70;16.67;;;5.70;99.90;;;;;;5092714;28;20552;-77
2023/12/07 08:39:46;;;;;;;22.87;14.63;;;5.50;99.90;;;;;;5095172;28;20177;-79
2023/12/07 08:42:12;;;;;;;25.10;15.77;;;5.60;99.90;;;;;;5090114;28;20187;-76
2023/12/07 08:44:38;;;;;;;20.80;14.20;;;5.60;99.90;;;;;;5101486;28;20696;-77
2023/12/07 08:47:05;;;;;;;23.73;15.80;;;5.80;99.90;;;;;;5101631;28;20853;-76
2023/12/07 08:49:30;;;;;;;21.40;16.03;;;6.40;99.90;;;;;;5092251;28;20415;-76
2023/12/07 08:51:57;;;;;;;21.80;16.07;;;7.20;99.90;;;;;;5093001;28;20422;-72
2023/12/07 08:54:23;;;;;;;20.10;16.00;;;8.30;99.90;;;;;;5091362;28;20412;-76
2023/12/07 08:56:48;;;;;;;20.20;15.90;;;9.30;99.90;;;;;;5094542;28;20502;-76
2023/12/07 08:59:14;;;;;;;20.00;15.50;;;10.40;99.90;;;;;;5093438;28;20176;-76
2023/12/07 09:01:40;;;;;;;20.47;15.07;;;11.40;98.80;;;;;;5111515;28;20186;-77
2023/12/07 09:04:06;;;;;;;18.40;15.43;;;12.40;95.50;;;;;;5107042;28;20176;-77
2023/12/07 09:06:32;;;;;;;20.23;16.57;;;13.20;92.20;;;;;;5093406;28;20228;-76
2023/12/07 09:08:57;;;;;;;21.23;17.50;;;13.70;90.50;;;;;;5092089;28;20422;-71
2023/12/07 09:11:23;;;;;;;20.20;15.67;;;13.90;87.70;;;;;;5093718;28;20421;-71
2023/12/07 09:13:49;;;;;;;354.43;217.80;;;14.00;86.00;;;;;;5091874;28;20223;-75
2023/12/07 09:16:15;;;;;;;345.57;198.10;;;14.10;85.30;;;;;;5091301;28;20450;-72
2023/12/07 09:18:46;;;;;;;26.03;20.40;;;14.30;84.20;;;;;;5092989;28;20177;-76
2023/12/07 09:21:11;;;;;;;19.30;17.20;;;14.60;81.00;;;;;;5091492;28;20186;-74
2023/12/07 09:23:37;;;;;;;20.90;17.00;;;15.20;79.40;;;;;;5092426;28;20981;-74
2023/12/07 09:26:04;;;;;;;20.67;17.27;;;15.80;78.00;;;;;;5092722;28;20551;-76
2023/12/07 09:28:29;;;;;;;19.13;17.23;;;16.60;75.40;;;;;;5092080;28;20295;-73
2023/12/07 09:30:55;;;;;;;18.87;16.60;;;17.50;72.70;;;;;;5110542;27;20558;-74
2023/12/07 09:33:21;;;;;;;19.43;17.33;;;18.30;68.30;;;;;;5084646;28;20180;-73
2023/12/07 09:35:47;;;;;;;18.53;16.60;;;19.00;65.30;;;;;;5092141;28;20189;-72
2023/12/07 09:38:13;;;;;;;18.57;16.77;;;19.50;62.30;;;;;;5106288;27;20623;-68
2023/12/07 09:40:38;;;;;;;19.17;17.20;;;19.70;60.00;;;;;;5092550;28;20428;-73
2023/12/07 09:43:04;;;;;;;19.07;17.27;;;19.70;59.30;;;;;;5093302;28;20620;-73
2023/12/07 09:45:30;;;;;;;17.87;16.07;;;19.90;58.70;;;;;;5107190;28;20196;-73
2023/12/07 09:47:56;;;;;;;15.63;14.23;;;19.90;57.00;;;;;;5103266;28;20188;-74
2023/12/07 09:50:23;;;;;;;15.90;14.40;;;19.60;56.00;;;;;;5091494;28;20419;-73
2023/12/07 09:52:56;;;;;;;15.40;14.10;;;19.60;57.20;;;;;;5091399;28;20528;-73
2023/12/07 09:55:22;;;;;;;16.33;14.77;;;20.20;56.00;;;;;;5101401;28;20513;-74
2023/12/07 09:57:49;;;;;;;14.03;12.73;;;20.90;54.90;;;;;;5113516;28;20410;-74
2023/12/07 10:00:15;;;;;;;11.80;10.73;;;20.80;52.80;;;;;;5110857;28;20417;-74
2023/12/07 10:02:45;;;;;;;14.30;13.10;;;21.20;52.70;;;;;;5101432;28;20968;-74
2023/12/07 10:05:13;;;;;;;13.57;12.27;;;21.60;51.80;;;;;;5092967;28;20418;-75
2023/12/07 10:07:43;;;;;;;16.63;15.43;;;21.40;51.20;;;;;;5092948;28;20448;-75
2023/12/07 10:10:13;;;;;;;15.53;14.43;;;21.50;50.70;;;;;;5092116;28;20786;-74
2023/12/07 10:12:53;;;;;;;12.03;10.93;;;21.60;50.80;;;;;;5092076;28;20444;-74
2023/12/07 10:15:20;;;;;;;13.60;12.33;;;21.10;50.10;;;;;;5091624;28;20470;-74
2023/12/07 10:17:59;;;;;;;14.50;13.30;;;21.00;51.10;;;;;;5092194;28;20422;-74
2023/12/07 10:20:27;;;;;;;13.90;12.80;;;21.00;52.10;;;;;;5092724;28;20432;-73
2023/12/07 10:23:07;;;;;;;12.13;11.03;;;20.80;51.70;;;;;;5091468;28;20410;-73
2023/12/07 10:25:36;;;;;;;12.53;11.60;;;20.40;51.50;;;;;;5091449;28;20426;-73
2023/12/07 10:28:07;;;;;;;13.30;12.10;;;19.80;51.50;;;;;;5091892;28;20410;-73
2023/12/07 10:30:33;;;;;;;12.83;11.63;;;19.60;53.10;;;;;;5092126;28;21088;-73
2023/12/07 10:32:59;;;;;;;12.77;11.67;;;19.10;53.80;;;;;;5090951;28;20433;-73
2023/12/07 10:35:25;;;;;;;12.20;11.20;;;18.60;56.30;;;;;;5091131;28;20813;-73
2023/12/07 10:37:51;;;;;;;13.57;12.53;;;18.10;56.80;;;;;;5092403;28;20172;-73
2023/12/07 10:40:20;;;;;;;11.27;10.27;;;17.80;56.50;;;;;;5090394;28;20418;-71
2023/12/07 10:42:48;;;;;;;10.33;9.43;;;17.60;57.60;;;;;;5092141;28;20536;-72
2023/12/07 10:45:15;;;;;;;12.23;11.10;;;17.30;56.30;;;;;;5093108;28;20508;-66
2023/12/07 10:47:43;;;;;;;11.40;10.40;;;17.00;56.70;;;;;;5092790;28;20402;-70
2023/12/07 10:50:13;;;;;;;11.83;10.80;;;16.60;57.60;;;;;;5114875;28;20419;-72
2023/12/07 10:52:55;;;;;;;10.83;9.83;;;16.50;58.20;;;;;;5113231;28;20527;-73
2023/12/07 10:55:25;;;;;;;11.67;10.57;;;16.10;57.80;;;;;;5114944;28;20447;-72
2023/12/07 10:57:56;;;;;;;11.00;10.10;;;15.70;58.70;;;;;;5116495;28;20421;-73
2023/12/07 11:00:27;;;;;;;10.70;9.40;;;15.30;58.50;;;;;;5107000;28;20515;-72
2023/12/07 11:02:53;;;;;;;10.70;9.70;;;15.10;59.30;;;;;;5095611;28;20456;-73
2023/12/07 11:05:19;;;;;;;10.27;8.53;;;14.30;58.90;;;;;;5095484;28;20440;-72
2023/12/07 11:08:06;;;;;;;9.57;8.77;;;14.20;61.10;;;;;;5095504;28;20180;-73
2023/12/07 11:10:57;;;;;;;10.80;9.80;;;14.10;61.90;;;;;;5094930;28;20455;-72
2023/12/07 11:13:29;;;;;;;9.97;8.97;;;13.80;61.10;;;;;;5095345;28;20410;-69
2023/12/07 11:15:55;;;;;;;11.20;10.00;;;13.70;63.70;;;;;;5112288;28;20861;-73
2023/12/07 11:18:21;;;;;;;10.40;9.40;;;13.70;63.10;;;;;;5107780;28;20430;-72
2023/12/07 11:20:47;;;;;;;8.80;7.90;;;13.70;63.70;;;;;;5096000;28;20899;-71
2023/12/07 11:23:20;;;;;;;9.67;8.83;;;13.70;64.40;;;;;;5094095;28;20180;-71
2023/12/07 11:25:47;;;;;;;10.23;9.23;;;13.40;64.20;;;;;;5095985;28;20217;-72
2023/12/07 11:28:13;;;;;;;10.60;9.63;;;13.30;66.50;;;;;;5094770;28;20982;-72
2023/12/07 11:30:43;;;;;;;10.50;9.50;;;13.10;65.50;;;;;;5093035;28;20415;-73
2023/12/07 11:33:09;;;;;;;12.10;10.90;;;12.90;66.90;;;;;;5096168;28;20417;-73
2023/12/07 11:36:03;;;;;;;9.93;9.03;;;13.00;69.00;;;;;;5094275;28;20463;-72
2023/12/07 11:38:29;;;;;;;11.00;9.90;;;12.80;67.50;;;;;;5094330;28;20428;-71
2023/12/07 11:40:56;;;;;;;10.00;9.10;;;12.80;69.50;;;;;;5095006;28;20786;-72
2023/12/07 11:43:38;;;;;;;10.63;9.63;;;12.80;69.80;;;;;;5093943;28;20179;-68
2023/12/07 11:46:03;;;;;;;9.37;8.47;;;12.80;69.30;;;;;;5095594;28;20411;-71
2023/12/07 11:48:29;;;;;;;10.00;9.00;;;12.80;71.00;;;;;;5093991;28;20425;-72
2023/12/07 11:51:07;;;;;;;9.87;8.97;;;12.90;72.60;;;;;;5099383;28;20421;-72
2023/12/07 11:53:36;;;;;;;11.30;10.17;;;13.00;70.90;;;;;;5114622;28;20169;-73
2023/12/07 11:56:05;;;;;;;9.50;8.50;;;12.90;71.40;;;;;;5094826;28;20471;-73
2023/12/07 11:58:33;;;;;;;9.97;9.07;;;12.90;69.80;;;;;;5093541;28;20967;-72
2023/12/07 12:01:00;;;;;;;10.07;9.10;;;12.90;71.20;;;;;;5093031;28;20497;-72
2023/12/07 12:03:31;;;;;;;11.00;10.10;;;12.90;71.60;;;;;;5093987;28;20459;-71
2023/12/07 12:05:57;;;;;;;9.43;8.57;;;12.90;71.90;;;;;;5094626;28;20451;-73
2023/12/07 12:08:24;;;;;;;10.53;9.70;;;12.70;71.10;;;;;;5094571;28;20406;-73
2023/12/07 12:10:56;;;;;;;9.80;8.90;;;12.60;73.00;;;;;;5111530;28;20183;-72
2023/12/07 12:13:30;;;;;;;10.33;9.23;;;12.40;70.20;;;;;;5096896;28;20427;-71
2023/12/07 12:15:57;;;;;;;9.43;8.53;;;12.20;71.20;;;;;;5112647;28;20460;-65
2023/12/07 12:18:23;;;;;;;9.70;8.80;;;12.40;86.00;;;;;;5114784;28;20406;-64
2023/12/07 12:20:51;;;;;;;9.60;8.80;;;12.90;85.60;;;;;;5095910;28;20421;-66
2023/12/07 12:23:17;;;;;;;10.30;9.40;;;12.80;86.90;;;;;;5094150;28;20432;-65
2023/12/07 12:25:44;;;;;;;10.90;9.87;;;13.00;86.00;;;;;;5093309;28;20498;-64
2023/12/07 12:28:10;;;;;;;8.67;7.97;;;13.10;89.70;;;;;;5092970;28;20422;-64
2023/12/07 12:30:36;;;;;;;9.63;8.73;;;13.30;86.50;;;;;;5095458;28;20774;-64
2023/12/07 12:33:02;;;;;;;9.43;8.60;;;13.10;78.60;;;;;;5094376;28;20186;-64
2023/12/07 12:35:28;;;;;;;9.90;8.90;;;12.70;85.20;;;;;;5091625;28;20465;-64